createdAt,value
2023-04-28T00:01:54.370Z,12.90
2023-04-28T00:03:58.688Z,12.91
2023-04-28T00:06:01.607Z,12.95
2023-04-28T00:08:05.994Z,12.93
2023-04-28T00:10:09.989Z,12.94
2023-04-28T00:12:12.570Z,12.94
2023-04-28T00:14:15.710Z,12.95
2023-04-28T00:16:18.697Z,12.96
2023-04-28T00:18:21.610Z,12.96
2023-04-28T00:20:24.237Z,12.97
2023-04-28T00:22:26.880Z,12.97
2023-04-28T00:24:32.580Z,12.94
2023-04-28T00:26:35.127Z,12.95
2023-04-28T00:28:38.073Z,12.99
2023-04-28T00:30:40.785Z,12.93
2023-04-28T00:32:43.346Z,12.92
2023-04-28T00:34:46.035Z,12.93
2023-04-28T00:36:48.588Z,12.95
2023-04-28T00:38:51.340Z,12.94
2023-04-28T00:40:55.233Z,12.95
2023-04-28T00:42:57.772Z,12.94
2023-04-28T00:45:05.635Z,12.93
2023-04-28T00:47:09.977Z,12.91
2023-04-28T00:49:12.822Z,12.89
2023-04-28T00:51:15.626Z,12.87
2023-04-28T00:53:18.302Z,12.86
2023-04-28T00:55:21.460Z,12.87
2023-04-28T00:57:25.881Z,12.86
2023-04-28T00:59:28.480Z,12.85
2023-04-28T01:01:31.137Z,12.86
2023-04-28T01:03:35.671Z,12.86
2023-04-28T01:05:38.403Z,12.86
2023-04-28T01:07:41.050Z,12.83
2023-04-28T01:09:44.046Z,12.81
2023-04-28T01:11:46.648Z,12.81
2023-04-28T01:13:50.655Z,12.81
2023-04-28T01:15:53.493Z,12.80
2023-04-28T01:17:57.424Z,12.80
2023-04-28T01:20:00.012Z,12.79
2023-04-28T01:22:02.583Z,12.79
2023-04-28T01:24:08.848Z,12.80
2023-04-28T01:26:11.379Z,12.79
2023-04-28T01:28:13.935Z,12.80
2023-04-28T01:30:16.597Z,12.81
2023-04-28T01:32:19.874Z,12.83
2023-04-28T01:34:22.446Z,12.82
2023-04-28T01:36:25.023Z,12.84
2023-04-28T01:38:27.557Z,12.87
2023-04-28T01:40:31.581Z,12.86
2023-04-28T01:42:34.164Z,12.97
2023-04-28T01:44:36.731Z,12.87
2023-04-28T01:46:39.437Z,12.81
2023-04-28T01:48:42.027Z,12.78
2023-04-28T01:50:44.573Z,12.78
2023-04-28T01:52:47.165Z,12.76
2023-04-28T01:54:49.745Z,12.75
2023-04-28T01:56:53.927Z,12.73
2023-04-28T01:58:56.515Z,12.73
2023-04-28T02:00:59.609Z,12.72
2023-04-28T02:03:02.208Z,12.74
2023-04-28T02:05:04.960Z,12.74
2023-04-28T02:07:08.064Z,12.75
2023-04-28T02:09:10.642Z,12.75
2023-04-28T02:11:13.263Z,12.79
2023-04-28T02:13:17.742Z,12.80
2023-04-28T02:15:20.497Z,12.79
2023-04-28T02:17:23.456Z,12.77
2023-04-28T02:19:26.296Z,12.80
2023-04-28T02:21:28.895Z,12.74
2023-04-28T02:23:31.435Z,12.74
2023-04-28T02:25:34.036Z,12.77
2023-04-28T02:27:37.575Z,12.75
2023-04-28T02:29:42.078Z,12.69
2023-04-28T02:31:44.665Z,12.65
2023-04-28T02:33:47.300Z,12.60
2023-04-28T02:35:59.818Z,12.59
2023-04-28T02:38:02.621Z,12.57
2023-04-28T02:40:05.913Z,12.57
2023-04-28T02:42:08.514Z,12.76
2023-04-28T02:44:11.265Z,12.61
2023-04-28T02:46:15.188Z,12.59
2023-04-28T02:48:17.928Z,12.60
2023-04-28T02:50:20.740Z,12.57
2023-04-28T02:52:23.294Z,12.58
2023-04-28T02:54:28.421Z,12.59
2023-04-28T02:56:31.073Z,12.57
2023-04-28T02:58:33.670Z,12.58
2023-04-28T03:00:36.382Z,12.59
2023-04-28T03:02:40.329Z,12.58
2023-04-28T03:04:43.001Z,12.68
2023-04-28T03:06:48.256Z,12.78
2023-04-28T03:08:50.848Z,12.84
2023-04-28T03:10:53.445Z,12.73
2023-04-28T03:12:56.255Z,12.84
2023-04-28T03:14:58.793Z,12.83
2023-04-28T03:17:01.435Z,12.74
2023-04-28T03:19:05.445Z,12.78
2023-04-28T03:21:07.989Z,12.74
2023-04-28T03:23:10.551Z,12.67
2023-04-28T03:25:13.195Z,12.54
2023-04-28T03:27:16.003Z,12.60
2023-04-28T03:29:18.600Z,12.83
2023-04-28T03:31:21.360Z,12.90
2023-04-28T03:33:23.052Z,12.74
2023-04-28T03:35:26.831Z,12.71
2023-04-28T03:37:29.373Z,12.58
2023-04-28T03:39:32.193Z,12.60
2023-04-28T03:41:34.776Z,12.63
2023-04-28T03:43:37.342Z,12.59
2023-04-28T03:45:40.050Z,12.56
2023-04-28T03:47:42.713Z,12.65
2023-04-28T03:49:45.417Z,12.45
2023-04-28T03:51:51.180Z,12.41
2023-04-28T03:53:53.776Z,12.39
2023-04-28T03:55:56.409Z,12.41
2023-04-28T03:57:59.063Z,12.43
2023-04-28T04:00:01.625Z,12.42
2023-04-28T04:02:04.467Z,12.44
2023-04-28T04:04:07.272Z,12.45
2023-04-28T04:06:10.249Z,12.46
2023-04-28T04:08:14.504Z,12.49
2023-04-28T04:10:17.279Z,12.47
2023-04-28T04:12:19.922Z,12.53
2023-04-28T04:14:22.664Z,12.58
2023-04-28T04:16:25.381Z,12.51
2023-04-28T04:18:28.530Z,12.49
2023-04-28T04:20:31.088Z,12.53
2023-04-28T04:22:33.691Z,12.51
2023-04-28T04:24:37.569Z,12.49
2023-04-28T04:26:40.145Z,12.47
2023-04-28T04:28:42.712Z,12.61
2023-04-28T04:30:45.395Z,12.66
2023-04-28T04:32:47.995Z,12.61
2023-04-28T04:34:50.602Z,12.61
2023-04-28T04:36:53.187Z,12.66
2023-04-28T04:38:55.744Z,12.55
2023-04-28T04:40:59.659Z,12.59
2023-04-28T04:43:02.244Z,12.73
2023-04-28T04:45:05.303Z,12.73
2023-04-28T04:47:07.861Z,12.58
2023-04-28T04:49:10.405Z,12.64
2023-04-28T04:51:12.941Z,12.48
2023-04-28T04:53:16.367Z,12.43
2023-04-28T04:55:19.384Z,12.41
2023-04-28T04:57:23.306Z,12.38
2023-04-28T04:59:25.973Z,12.43
2023-04-28T05:01:28.574Z,12.40
2023-04-28T05:03:31.233Z,12.41
2023-04-28T05:05:34.653Z,12.40
2023-04-28T05:07:37.318Z,12.43
2023-04-28T05:09:39.866Z,12.43
2023-04-28T05:11:42.486Z,12.66
2023-04-28T05:13:46.417Z,12.51
2023-04-28T05:15:48.995Z,12.49
2023-04-28T05:17:51.681Z,12.47
2023-04-28T05:19:54.282Z,12.48
2023-04-28T05:21:56.923Z,12.48
2023-04-28T05:23:59.492Z,12.49
2023-04-28T05:26:03.145Z,12.50
2023-04-28T05:28:07.675Z,12.62
2023-04-28T05:30:12.222Z,12.64
2023-04-28T05:32:14.925Z,12.70
2023-04-28T05:34:17.902Z,12.64
2023-04-28T05:36:20.747Z,12.63
2023-04-28T05:38:23.639Z,12.67
2023-04-28T05:40:26.408Z,12.74
2023-04-28T05:42:29.068Z,12.71
2023-04-28T05:44:32.603Z,12.77
2023-04-28T05:46:37.531Z,12.81
2023-04-28T05:48:40.130Z,12.81
2023-04-28T05:50:42.744Z,12.83
2023-04-28T05:52:45.343Z,12.89
2023-04-28T05:54:47.893Z,12.88
2023-04-28T05:56:50.591Z,12.90
2023-04-28T05:58:53.301Z,12.92
2023-04-28T06:00:55.869Z,13.08
2023-04-28T06:02:59.896Z,13.09
2023-04-28T06:05:02.805Z,13.20
2023-04-28T06:07:06.004Z,13.08
2023-04-28T06:09:09.018Z,13.21
2023-04-28T06:11:11.765Z,13.17
2023-04-28T06:13:14.834Z,13.14
2023-04-28T06:15:17.650Z,13.11
2023-04-28T06:17:20.730Z,13.14
2023-04-28T06:19:24.680Z,13.23
2023-04-28T06:21:28.617Z,13.18
2023-04-28T06:23:31.353Z,13.10
2023-04-28T06:25:33.972Z,13.13
2023-04-28T06:27:36.542Z,13.18
2023-04-28T06:29:39.134Z,13.23
2023-04-28T06:31:41.856Z,13.27
2023-04-28T06:33:44.509Z,13.23
2023-04-28T06:35:48.551Z,13.27
2023-04-28T06:37:51.098Z,13.35
2023-04-28T06:39:53.706Z,13.43
2023-04-28T06:41:56.290Z,13.33
2023-04-28T06:43:58.844Z,13.25
2023-04-28T06:46:01.967Z,13.20
2023-04-28T06:48:04.729Z,13.35
2023-04-28T06:50:08.395Z,13.31
2023-04-28T06:52:14.291Z,13.24
2023-04-28T06:54:18.590Z,13.25
2023-04-28T06:56:22.214Z,13.32
2023-04-28T06:58:24.856Z,13.28
2023-04-28T07:00:27.466Z,13.35
2023-04-28T07:02:30.304Z,13.34
2023-04-28T07:04:32.982Z,13.29
2023-04-28T07:06:35.771Z,13.33
2023-04-28T07:08:39.724Z,13.48
2023-04-28T07:10:42.273Z,13.45
2023-04-28T07:12:45.684Z,13.49
2023-04-28T07:14:48.253Z,13.42
2023-04-28T07:16:50.846Z,13.41
2023-04-28T07:18:53.483Z,13.45
2023-04-28T07:20:56.055Z,13.50
2023-04-28T07:22:58.672Z,13.44
2023-04-28T07:25:02.604Z,13.50
2023-04-28T07:27:05.219Z,13.43
2023-04-28T07:29:08.953Z,13.38
2023-04-28T07:31:11.605Z,13.39
2023-04-28T07:33:14.200Z,13.46
2023-04-28T07:35:16.949Z,13.44
2023-04-28T07:37:19.702Z,13.47
2023-04-28T07:39:22.301Z,13.33
2023-04-28T07:41:28.927Z,13.43
2023-04-28T07:43:31.698Z,13.38
2023-04-28T07:45:34.289Z,13.38
2023-04-28T07:47:37.003Z,13.39
2023-04-28T07:49:39.615Z,13.49
2023-04-28T07:51:42.231Z,13.50
2023-04-28T07:53:44.805Z,13.40
2023-04-28T07:55:47.638Z,13.42
2023-04-28T07:57:51.537Z,13.34
2023-04-28T07:59:54.159Z,13.41
2023-04-28T08:01:56.810Z,13.46
2023-04-28T08:03:59.634Z,13.35
2023-04-28T08:06:02.660Z,13.31
2023-04-28T08:08:05.758Z,13.34
2023-04-28T08:10:10.531Z,13.33
2023-04-28T08:12:13.212Z,13.29
2023-04-28T08:14:17.880Z,13.32
2023-04-28T08:16:20.897Z,13.30
2023-04-28T08:18:23.926Z,13.36
2023-04-28T08:20:26.599Z,13.37
2023-04-28T08:22:29.224Z,13.35
2023-04-28T08:24:34.206Z,13.34
2023-04-28T08:26:36.796Z,13.35
2023-04-28T08:28:40.046Z,13.41
2023-04-28T08:30:44.053Z,13.55
2023-04-28T08:32:46.680Z,13.43
2023-04-28T08:34:49.370Z,13.49
2023-04-28T08:36:53.574Z,13.54
2023-04-28T08:38:58.824Z,13.48
2023-04-28T08:41:01.393Z,13.43
2023-04-28T08:43:04.033Z,13.43
2023-04-28T08:45:07.934Z,13.40
2023-04-28T08:47:14.490Z,13.55
2023-04-28T08:49:18.637Z,13.42
2023-04-28T08:51:29.707Z,13.38
2023-04-28T08:53:33.318Z,13.44
2023-04-28T08:55:37.519Z,13.55
2023-04-28T08:57:43.932Z,13.58
2023-04-28T08:59:46.748Z,13.58
2023-04-28T09:01:50.253Z,13.63
2023-04-28T09:03:55.636Z,13.55
2023-04-28T09:05:58.545Z,13.52
2023-04-28T09:08:03.823Z,13.51
2023-04-28T09:10:20.477Z,13.64
2023-04-28T09:12:24.243Z,13.60
2023-04-28T09:14:27.714Z,13.83
2023-04-28T09:16:41.437Z,13.95
2023-04-28T09:18:58.389Z,13.85
2023-04-28T09:21:05.524Z,13.87
2023-04-28T09:23:16.316Z,14.05
2023-04-28T09:25:19.271Z,14.05
2023-04-28T09:27:28.404Z,14.04
2023-04-28T09:29:31.704Z,13.94
2023-04-28T09:31:40.569Z,13.89
2023-04-28T09:33:59.296Z,14.03
2023-04-28T09:36:02.013Z,14.10
2023-04-28T09:38:04.653Z,14.00
2023-04-28T09:40:09.886Z,14.10
2023-04-28T09:42:12.510Z,14.12
2023-04-28T09:44:17.107Z,14.24
2023-04-28T09:46:29.898Z,14.40
2023-04-28T09:48:34.197Z,14.28
2023-04-28T09:50:42.144Z,14.40
2023-04-28T09:52:46.880Z,14.36
2023-04-28T09:54:51.257Z,14.29
2023-04-28T09:56:55.183Z,14.28
2023-04-28T09:58:59.228Z,14.43
2023-04-28T10:01:02.363Z,14.38
2023-04-28T10:03:06.592Z,14.66
2023-04-28T10:05:11.213Z,14.82
2023-04-28T10:07:16.897Z,14.93
2023-04-28T10:09:26.449Z,14.87
2023-04-28T10:11:30.583Z,14.86
2023-04-28T10:13:33.669Z,14.91
2023-04-28T10:15:37.462Z,14.97
2023-04-28T10:17:40.543Z,15.19
2023-04-28T10:19:45.339Z,15.23
2023-04-28T10:21:56.902Z,15.06
2023-04-28T10:24:16.533Z,15.28
2023-04-28T10:26:20.655Z,15.24
2023-04-28T10:28:23.445Z,15.25
2023-04-28T10:30:29.540Z,15.42
2023-04-28T10:32:33.388Z,15.58
2023-04-28T10:34:36.034Z,15.49
2023-04-28T10:36:50.723Z,15.47
2023-04-28T10:39:12.195Z,15.63
2023-04-28T10:41:33.087Z,15.56
2023-04-28T10:43:40.130Z,15.60
2023-04-28T10:46:01.297Z,15.56
2023-04-28T10:48:06.380Z,15.69
2023-04-28T10:50:09.765Z,15.75
2023-04-28T10:52:44.182Z,15.66
2023-04-28T10:55:32.196Z,15.70
2023-04-28T10:57:34.798Z,15.80
2023-04-28T10:59:37.548Z,15.97
2023-04-28T11:01:40.562Z,15.84
2023-04-28T11:03:51.566Z,16.00
2023-04-28T11:06:20.421Z,16.14
2023-04-28T11:08:37.914Z,16.16
2023-04-28T11:11:18.617Z,16.08
2023-04-28T11:13:28.046Z,16.33
2023-04-28T11:15:30.824Z,16.27
2023-04-28T11:17:41.793Z,16.33
2023-04-28T11:19:46.092Z,16.37
2023-04-28T11:21:49.620Z,16.40
2023-04-28T11:23:53.270Z,16.26
2023-04-28T11:25:55.974Z,16.45
2023-04-28T11:28:07.046Z,16.49
2023-04-28T11:30:22.287Z,16.50
2023-04-28T11:32:29.436Z,16.54
2023-04-28T11:34:32.648Z,16.35
2023-04-28T11:36:37.108Z,16.60
2023-04-28T11:38:44.882Z,16.63
2023-04-28T11:40:58.161Z,16.50
2023-04-28T11:43:01.965Z,16.58
2023-04-28T11:45:08.049Z,16.51
2023-04-28T11:47:10.968Z,16.53
2023-04-28T11:49:15.015Z,16.47
2023-04-28T11:51:34.744Z,16.50
2023-04-28T11:53:43.603Z,16.64
2023-04-28T11:55:46.216Z,16.60
2023-04-28T11:57:48.778Z,16.72
2023-04-28T11:59:51.905Z,16.72
2023-04-28T12:01:59.202Z,16.74
2023-04-28T12:04:02.234Z,16.55
2023-04-28T12:06:05.484Z,16.50
2023-04-28T12:08:08.263Z,16.60
2023-04-28T12:10:12.441Z,16.57
2023-04-28T12:12:18.258Z,16.55
2023-04-28T12:14:21.256Z,16.74
2023-04-28T12:16:39.121Z,16.70
2023-04-28T12:18:59.521Z,16.79
2023-04-28T12:21:02.136Z,16.82
2023-04-28T12:23:05.434Z,16.81
2023-04-28T12:25:09.884Z,16.83
2023-04-28T12:27:16.901Z,16.77
2023-04-28T12:29:41.771Z,16.80
2023-04-28T12:31:52.958Z,16.77
2023-04-28T12:33:57.062Z,16.72
2023-04-28T12:35:59.847Z,16.83
2023-04-28T12:38:02.433Z,16.77
2023-04-28T12:40:06.513Z,16.81
2023-04-28T12:42:09.217Z,16.69
2023-04-28T12:44:11.786Z,16.78
2023-04-28T12:46:15.691Z,16.83
2023-04-28T12:48:18.440Z,16.79
2023-04-28T12:50:22.427Z,16.79
2023-04-28T12:52:25.002Z,16.83
2023-04-28T12:54:27.772Z,16.82
2023-04-28T12:56:30.398Z,16.74
2023-04-28T12:58:33.032Z,16.69
2023-04-28T13:00:35.579Z,16.86
2023-04-28T13:02:38.468Z,16.95
2023-04-28T13:04:42.896Z,16.98
2023-04-28T13:06:47.056Z,16.98
2023-04-28T13:08:50.192Z,16.95
2023-04-28T13:10:52.794Z,17.03
2023-04-28T13:12:55.374Z,16.91
2023-04-28T13:14:57.921Z,17.07
2023-04-28T13:17:01.595Z,17.08
2023-04-28T13:19:09.365Z,17.06
2023-04-28T13:21:11.936Z,17.16
2023-04-28T13:23:15.888Z,17.05
2023-04-28T13:25:18.490Z,17.18
2023-04-28T13:27:21.126Z,17.18
2023-04-28T13:29:23.699Z,17.13
2023-04-28T13:31:26.379Z,17.07
2023-04-28T13:33:31.242Z,17.10
2023-04-28T13:35:33.832Z,16.99
2023-04-28T13:37:38.988Z,16.88
2023-04-28T13:39:42.873Z,17.08
2023-04-28T13:41:45.430Z,17.07
2023-04-28T13:43:48.049Z,17.04
2023-04-28T13:45:50.727Z,17.02
2023-04-28T13:47:54.982Z,16.92
2023-04-28T13:49:57.692Z,16.87
2023-04-28T13:52:03.580Z,16.89
2023-04-28T13:54:08.735Z,16.68
2023-04-28T13:56:12.704Z,16.80
2023-04-28T13:58:15.254Z,16.89
2023-04-28T14:00:21.333Z,16.75
2023-04-28T14:02:24.579Z,16.85
2023-04-28T14:04:27.432Z,16.92
2023-04-28T14:06:31.113Z,16.87
2023-04-28T14:08:34.492Z,16.79
2023-04-28T14:10:37.125Z,16.67
2023-04-28T14:12:41.053Z,16.61
2023-04-28T14:14:43.948Z,16.58
2023-04-28T14:16:47.565Z,16.66
2023-04-28T14:18:50.146Z,16.54
2023-04-28T14:20:54.162Z,16.59
2023-04-28T14:22:56.790Z,16.53
2023-04-28T14:24:59.360Z,16.53
2023-04-28T14:27:01.951Z,16.54
2023-04-28T14:29:06.058Z,16.51
2023-04-28T14:31:09.096Z,16.27
2023-04-28T14:33:11.965Z,16.44
2023-04-28T14:35:15.482Z,16.26
2023-04-28T14:37:18.273Z,16.13
2023-04-28T14:39:20.852Z,16.08
2023-04-28T14:41:23.415Z,16.09
2023-04-28T14:43:26.404Z,16.06
2023-04-28T14:45:30.343Z,16.03
2023-04-28T14:47:33.411Z,15.88
2023-04-28T14:49:36.067Z,16.01
2023-04-28T14:51:38.611Z,16.07
2023-04-28T14:53:42.024Z,15.89
2023-04-28T14:55:44.744Z,15.87
2023-04-28T14:57:48.230Z,15.92
2023-04-28T14:59:51.873Z,15.82
2023-04-28T15:01:58.950Z,15.80
2023-04-28T15:04:01.829Z,15.87
2023-04-28T15:06:05.532Z,15.63
2023-04-28T15:08:08.065Z,15.65
2023-04-28T15:10:10.812Z,15.64
2023-04-28T15:12:13.437Z,15.60
2023-04-28T15:14:16.446Z,15.51
2023-04-28T15:16:19.382Z,15.46
2023-04-28T15:18:23.302Z,15.62
2023-04-28T15:20:27.250Z,15.56
2023-04-28T15:22:31.220Z,15.50
2023-04-28T15:24:33.762Z,15.41
2023-04-28T15:26:36.342Z,15.43
2023-04-28T15:28:39.346Z,15.37
2023-04-28T15:30:42.300Z,15.38
2023-04-28T15:32:45.322Z,15.39
2023-04-28T15:34:49.494Z,15.43
2023-04-28T15:36:53.851Z,15.41
2023-04-28T15:38:56.468Z,15.38
2023-04-28T15:40:59.178Z,15.36
2023-04-28T15:43:02.907Z,15.30
2023-04-28T15:45:06.721Z,15.34
2023-04-28T15:47:10.105Z,15.38
2023-04-28T15:49:13.276Z,15.36
2023-04-28T15:51:17.204Z,15.39
2023-04-28T15:53:19.778Z,15.37
2023-04-28T15:55:24.022Z,15.39
2023-04-28T15:57:26.903Z,15.36
2023-04-28T15:59:31.026Z,15.43
2023-04-28T16:01:33.919Z,15.41
2023-04-28T16:03:36.738Z,15.35
2023-04-28T16:05:42.350Z,15.39
2023-04-28T16:07:47.605Z,15.31
2023-04-28T16:09:50.156Z,15.30
2023-04-28T16:11:52.789Z,15.27
2023-04-28T16:13:55.373Z,15.25
2023-04-28T16:15:57.911Z,15.25
2023-04-28T16:18:00.591Z,15.26
2023-04-28T16:20:04.561Z,15.25
2023-04-28T16:22:07.254Z,15.39
2023-04-28T16:24:11.380Z,15.34
2023-04-28T16:26:13.951Z,15.48
2023-04-28T16:28:16.538Z,15.52
2023-04-28T16:30:19.307Z,15.45
2023-04-28T16:32:21.974Z,15.41
2023-04-28T16:34:24.684Z,15.43
2023-04-28T16:36:32.755Z,15.39
2023-04-28T16:38:35.622Z,15.35
2023-04-28T16:40:39.704Z,15.36
2023-04-28T16:42:43.510Z,15.47
2023-04-28T16:44:46.147Z,15.45
2023-04-28T16:46:48.875Z,15.41
2023-04-28T16:48:51.447Z,15.42
2023-04-28T16:50:54.069Z,15.41
2023-04-28T16:52:56.717Z,15.38
2023-04-28T16:55:00.436Z,15.37
2023-04-28T16:57:04.943Z,15.38
2023-04-28T16:59:07.792Z,15.43
2023-04-28T17:01:10.394Z,15.37
2023-04-28T17:03:13.108Z,15.49
2023-04-28T17:05:15.749Z,15.50
2023-04-28T17:07:18.344Z,15.39
2023-04-28T17:09:21.971Z,15.36
2023-04-28T17:11:24.516Z,15.39
2023-04-28T17:13:28.427Z,15.41
2023-04-28T17:15:31.204Z,15.39
2023-04-28T17:17:34.581Z,15.44
2023-04-28T17:19:37.510Z,15.50
2023-04-28T17:21:40.161Z,15.43
2023-04-28T17:23:42.851Z,15.43
2023-04-28T17:25:45.525Z,15.37
2023-04-28T17:27:48.092Z,15.43
2023-04-28T17:29:52.525Z,15.41
2023-04-28T17:31:55.540Z,15.50
2023-04-28T17:33:59.602Z,15.46
2023-04-28T17:36:03.040Z,15.51
2023-04-28T17:38:09.353Z,15.58
2023-04-28T17:40:12.857Z,15.50
2023-04-28T17:42:15.987Z,15.50
2023-04-28T17:44:18.583Z,15.55
2023-04-28T17:46:22.815Z,15.57
2023-04-28T17:48:25.365Z,15.45
2023-04-28T17:50:27.940Z,15.49
2023-04-28T17:52:30.599Z,15.42
2023-04-28T17:54:33.921Z,15.38
2023-04-28T17:56:37.784Z,15.37
2023-04-28T17:58:40.645Z,15.36
2023-04-28T18:00:43.226Z,15.33
2023-04-28T18:02:47.230Z,15.36
2023-04-28T18:04:50.748Z,15.37
2023-04-28T18:06:53.567Z,15.33
2023-04-28T18:08:56.220Z,15.27
2023-04-28T18:10:59.793Z,15.33
2023-04-28T18:13:02.402Z,15.31
2023-04-28T18:15:05.519Z,15.32
2023-04-28T18:17:08.573Z,15.38
2023-04-28T18:19:13.846Z,15.42
2023-04-28T18:21:16.637Z,15.42
2023-04-28T18:23:19.689Z,15.26
2023-04-28T18:25:23.376Z,15.26
2023-04-28T18:27:25.975Z,15.31
2023-04-28T18:29:28.600Z,15.29
2023-04-28T18:31:31.979Z,15.18
2023-04-28T18:33:34.697Z,15.09
2023-04-28T18:35:38.657Z,15.05
2023-04-28T18:37:44.710Z,15.09
2023-04-28T18:39:50.360Z,15.15
2023-04-28T18:41:53.070Z,15.07
2023-04-28T18:43:58.250Z,15.11
2023-04-28T18:46:04.236Z,15.10
2023-04-28T18:48:07.368Z,15.07
2023-04-28T18:50:10.532Z,15.00
2023-04-28T18:52:14.762Z,15.03
2023-04-28T18:54:17.476Z,15.02
2023-04-28T18:56:20.971Z,14.90
2023-04-28T18:58:26.689Z,14.93
2023-04-28T19:00:29.351Z,14.94
2023-04-28T19:02:32.779Z,14.92
2023-04-28T19:04:35.657Z,15.05
2023-04-28T19:06:38.757Z,15.11
2023-04-28T19:08:43.723Z,15.09
2023-04-28T19:10:47.826Z,15.08
2023-04-28T19:12:50.386Z,15.07
2023-04-28T19:14:53.434Z,15.11
2023-04-28T19:16:56.173Z,15.02
2023-04-28T19:18:58.885Z,14.99
2023-04-28T19:21:02.690Z,15.06
2023-04-28T19:23:05.257Z,15.05
2023-04-28T19:25:09.756Z,15.07
2023-04-28T19:27:12.284Z,15.13
2023-04-28T19:29:17.169Z,15.15
2023-04-28T19:31:19.861Z,15.15
2023-04-28T19:33:26.229Z,15.13
2023-04-28T19:35:30.462Z,15.11
2023-04-28T19:37:34.056Z,15.07
2023-04-28T19:39:37.699Z,15.10
2023-04-28T19:41:41.672Z,15.07
2023-04-28T19:43:44.424Z,15.05
2023-04-28T19:45:48.707Z,15.11
2023-04-28T19:47:51.845Z,15.12
2023-04-28T19:49:54.660Z,15.09
2023-04-28T19:51:57.412Z,15.09
2023-04-28T19:53:59.971Z,15.09
2023-04-28T19:56:03.827Z,15.09
2023-04-28T19:58:09.742Z,15.04
2023-04-28T20:00:13.694Z,14.99
2023-04-28T20:02:16.580Z,15.00
2023-04-28T20:04:19.420Z,14.91
2023-04-28T20:06:22.427Z,14.91
2023-04-28T20:08:25.955Z,14.83
2023-04-28T20:10:28.493Z,14.83
2023-04-28T20:12:31.096Z,14.83
2023-04-28T20:14:35.751Z,14.75
2023-04-28T20:16:41.258Z,14.73
2023-04-28T20:18:43.923Z,14.68
2023-04-28T20:20:46.483Z,14.67
2023-04-28T20:22:50.639Z,14.64
2023-04-28T20:24:54.003Z,14.69
2023-04-28T20:26:56.554Z,14.75
2023-04-28T20:28:59.549Z,14.67
2023-04-28T20:31:03.515Z,14.65
2023-04-28T20:33:06.128Z,14.66
2023-04-28T20:35:09.237Z,14.56
2023-04-28T20:37:13.447Z,14.64
2023-04-28T20:39:16.034Z,14.57
2023-04-28T20:41:18.609Z,14.47
2023-04-28T20:43:21.433Z,14.51
2023-04-28T20:45:24.636Z,14.43
2023-04-28T20:47:28.604Z,14.37
2023-04-28T20:49:31.268Z,14.31
2023-04-28T20:51:34.207Z,14.25
2023-04-28T20:53:38.297Z,14.30
2023-04-28T20:55:40.887Z,14.22
2023-04-28T20:57:43.461Z,14.23
2023-04-28T20:59:45.999Z,14.24
2023-04-28T21:01:48.634Z,14.21
2023-04-28T21:03:52.862Z,14.24
2023-04-28T21:05:55.986Z,14.25
2023-04-28T21:07:58.593Z,14.19
2023-04-28T21:10:01.161Z,14.10
2023-04-28T21:12:04.622Z,14.10
2023-04-28T21:14:07.293Z,14.12
2023-04-28T21:16:13.636Z,14.08
2023-04-28T21:18:16.220Z,14.01
2023-04-28T21:20:20.518Z,14.01
2023-04-28T21:22:23.288Z,14.01
2023-04-28T21:24:25.866Z,13.99
2023-04-28T21:26:28.618Z,14.12
2023-04-28T21:28:33.889Z,14.15
2023-04-28T21:30:36.467Z,14.07
2023-04-28T21:32:39.081Z,13.98
2023-04-28T21:34:41.752Z,13.97
2023-04-28T21:36:45.658Z,13.98
2023-04-28T21:38:49.086Z,13.91
2023-04-28T21:40:51.824Z,13.82
2023-04-28T21:42:54.400Z,13.78
2023-04-28T21:44:57.285Z,13.75
2023-04-28T21:46:59.892Z,13.73
2023-04-28T21:49:02.474Z,13.71
2023-04-28T21:51:05.401Z,13.69
2023-04-28T21:53:09.326Z,13.70
2023-04-28T21:55:11.900Z,13.71
2023-04-28T21:57:15.755Z,13.74
2023-04-28T21:59:18.340Z,13.69
2023-04-28T22:01:21.366Z,13.69
2023-04-28T22:03:24.328Z,13.73
2023-04-28T22:05:27.029Z,13.71
2023-04-28T22:07:30.251Z,13.69
2023-04-28T22:09:34.501Z,13.67
2023-04-28T22:11:37.576Z,13.67
2023-04-28T22:13:40.307Z,13.67
2023-04-28T22:15:43.182Z,13.68
2023-04-28T22:17:46.058Z,13.65
2023-04-28T22:19:48.745Z,13.66
2023-04-28T22:21:51.485Z,13.68
2023-04-28T22:23:54.029Z,13.64
2023-04-28T22:26:00.043Z,13.62
2023-04-28T22:28:02.993Z,13.63
2023-04-28T22:30:08.142Z,13.59
2023-04-28T22:32:10.839Z,13.57
2023-04-28T22:34:13.423Z,13.55
2023-04-28T22:36:15.995Z,13.59
2023-04-28T22:38:18.614Z,13.55
2023-04-28T22:40:21.561Z,13.53
2023-04-28T22:42:25.467Z,13.54
2023-04-28T22:44:28.042Z,13.66
2023-04-28T22:46:31.225Z,13.78
2023-04-28T22:48:33.924Z,13.62
2023-04-28T22:50:36.489Z,13.61
2023-04-28T22:52:40.065Z,13.55
2023-04-28T22:54:42.626Z,13.70
2023-04-28T22:56:45.182Z,13.69
2023-04-28T22:58:49.330Z,13.76
2023-04-28T23:00:51.861Z,13.73
2023-04-28T23:02:54.554Z,13.76
2023-04-28T23:04:57.686Z,13.69
2023-04-28T23:07:00.233Z,13.83
2023-04-28T23:09:03.556Z,13.76
2023-04-28T23:11:07.478Z,13.84
2023-04-28T23:13:10.136Z,13.76
2023-04-28T23:15:14.111Z,13.84
2023-04-28T23:17:16.791Z,13.76
2023-04-28T23:19:20.730Z,13.71
2023-04-28T23:21:23.460Z,13.77
2023-04-28T23:23:26.140Z,13.80
2023-04-28T23:25:28.730Z,13.73
2023-04-28T23:27:31.293Z,13.64
2023-04-28T23:29:35.187Z,13.65
2023-04-28T23:31:39.970Z,13.75
2023-04-28T23:33:42.782Z,13.70
2023-04-28T23:35:45.337Z,13.68
2023-04-28T23:37:47.897Z,13.78
2023-04-28T23:39:50.688Z,13.84
2023-04-28T23:41:53.439Z,13.85
2023-04-28T23:43:56.644Z,13.83
2023-04-28T23:45:59.269Z,13.81
2023-04-28T23:48:03.214Z,13.82
2023-04-28T23:50:06.537Z,13.79
2023-04-28T23:52:11.534Z,13.70
2023-04-28T23:54:14.182Z,13.67
2023-04-28T23:56:16.794Z,13.76
2023-04-28T23:58:19.408Z,13.67
